Terminal Aerodrome Forecast
Issued by NWS Cleveland, OH

Home | Current Version | Previous Version | Graphics & Text | Print | Product List | Glossary On
Versions: 1 2 3 4 5 6 7 8 9 10 11 12 13 14 15 16 17 18 19 20 21
937
FTUS41 KCLE 301128
TAFTOL
TAF
KTOL 301128Z 3012/0112 08008KT P6SM FEW040 BKN150
     FM302000 08010G18KT 6SM -RA BR OVC035
      TEMPO 3021/3024 5SM -RA SCT010 OVC020
     FM010000 08014KT 3SM -RA BR BKN007 OVC010
     FM010300 09010KT 3SM BR VCSH BKN005 OVC010=

USA.gov is the U.S. government's official web portal to all federal, state and local government web resources and services.